Flight Track Log - Related Links

Times and Time Zones

All times are in EST time to prevent confusion due to time zone crossing. See the N891ES flight status page for this flight to view local times or setup timezone preferences in your user account.

Time Position Orientation Groundspeed Altitude Reporting Facility
EST Latitude Longitude Course Direction KTS MPH feet Rate Location/Type
Tue 11:35:24 PM 35.1200 -85.1989 342° North 163 188 5,500  Level Memphis Center
Tue 11:36:24 PM 35.1603 -85.2236 333° Northwest 164 189 8,100 2,231 Climbing Memphis Center
Tue 11:37:25 PM 35.1956 -85.2458 333° Northwest 148 170 10,000 934 Climbing Memphis Center
Tue 11:38:26 PM 35.2444 -85.2739 335° Northwest 183 211 10,000  Level Memphis Center
Tue 11:39:27 PM 35.2969 -85.3061 333° Northwest 204 235 10,000 639 Level Memphis Center
Tue 11:40:28 PM 35.3478 -85.3353 335° Northwest 204 235 11,300 1,869 Climbing Memphis Center
Tue 11:41:29 PM 35.3986 -85.3636 336° Northwest 175 201 13,800 2,164 Climbing Memphis Center
Tue 11:42:30 PM 35.4403 -85.3872 335° Northwest 166 191 15,700 1,770 Climbing Memphis Center
Tue 11:43:31 PM 35.4817 -85.4122 334° Northwest 165 190 17,400 1,388 Climbing Memphis Center
Tue 11:44:31 PM 35.5250 -85.4386 334° Northwest 170 196 18,500 1,438 Climbing Memphis Center
Tue 11:45:32 PM 35.5669 -85.4619 336° Northwest 168 193 20,300 1,672 Climbing Memphis Center
Tue 11:46:33 PM 35.6047 -85.4853 333° Northwest 157 181 21,900 1,328 Climbing Memphis Center
Tue 11:47:34 PM 35.6458 -85.5081 336° Northwest 158 182 23,000 1,131 Climbing Memphis Center
Tue 11:48:35 PM 35.6889 -85.5344 334° Northwest 168 193 24,200 1,180 Climbing Memphis Center
Tue 11:49:36 PM 35.7322 -85.5597 335° Northwest 171 197 25,400 885 Climbing Memphis Center
Tue 11:50:37 PM 35.7742 -85.5853 334° Northwest 169 194 26,000 295 Climbing Memphis Center
Tue 11:51:38 PM 35.8258 -85.6169 334° Northwest 193 222 26,000  Level Memphis Center
Tue 11:52:39 PM 35.8822 -85.6492 335° Northwest 214 246 26,000  Level Memphis Center
Tue 11:53:40 PM 35.9369 -85.6817 334° Northwest 218 251 26,000  Level Memphis Center
Tue 11:54:40 PM 35.9908 -85.7128 335° Northwest 215 247 26,000  Level Memphis Center
Tue 11:55:41 PM 36.0433 -85.7444 334° Northwest 211 243 26,000  Level Memphis Center
Tue 11:56:42 PM 36.0944 -85.7747 334° Northwest 206 237 26,000  Level Memphis Center
Tue 11:57:43 PM 36.1456 -85.8053 334° Northwest 204 235 26,000  Level Memphis Center
Tue 11:58:44 PM 36.1994 -85.8375 334° Northwest 203 234 26,000  Level Memphis Center
Tue 11:59:45 PM 36.2508 -85.8681 334° Northwest 203 234 26,000  Level Memphis Center
Wed 12:00:45 AM 36.3008 -85.8981 334° Northwest 200 230 26,000  Level Memphis Center
Wed 12:01:46 AM 36.3506 -85.9278 334° Northwest 198 228 26,000  Level Memphis Center
Wed 12:02:47 AM 36.4003 -85.9589 333° Northwest 197 227 26,000  Level Memphis Center
Wed 12:03:48 AM 36.4497 -85.9878 335° Northwest 196 226 26,000  Level Memphis Center
Wed 12:04:49 AM 36.4983 -86.0181 333° Northwest 194 223 26,000  Level Memphis Center
Wed 12:05:49 AM 36.5472 -86.0469 335° Northwest 194 223 26,000  Level Memphis Center
Wed 12:06:50 AM 36.5956 -86.0758 334° Northwest 192 221 26,000  Level Memphis Center
Wed 12:07:51 AM 36.6442 -86.1053 334° Northwest 192 221 26,000  Level Memphis Center
Wed 12:08:52 AM 36.6919 -86.1344 334° Northwest 191 220 26,000  Level Memphis Center
Wed 12:09:53 AM 36.7397 -86.1633 334° Northwest 190 219 26,000  Level Memphis Center
Wed 12:10:53 AM 36.7867 -86.1928 333° Northwest 188 216 26,000  Level Memphis Center
Wed 12:11:54 AM 36.8342 -86.2208 335° Northwest 188 216 26,000  Level Memphis Center
Wed 12:12:55 AM 36.8814 -86.2506 333° Northwest 189 217 26,000  Level Memphis Center
Wed 12:13:55 AM 36.9311 -86.2806 334° Northwest 194 223 26,000  Level Memphis Center
Wed 12:14:56 AM 36.9797 -86.3094 335° Northwest 193 222 26,000  Level Memphis Center
Wed 12:15:57 AM 37.0347 -86.3433 334° Northwest 189 217 26,000  Level Memphis Center
Wed 12:16:58 AM 37.0828 -86.3739 333° Northwest 191 220 26,000  Level Memphis Center
Wed 12:17:58 AM 37.1314 -86.4039 334° Northwest 192 221 26,000  Level Memphis Center
Wed 12:18:59 AM 37.1800 -86.4322 335° Northwest 191 220 26,000  Level Memphis Center
Wed 12:20:00 AM 37.2283 -86.4644 332° Northwest 194 223 26,000  Level Memphis Center
Wed 12:21:00 AM 37.2775 -86.4925 336° Northwest 192 221 26,000  Level Memphis Center
Wed 12:22:01 AM 37.3264 -86.5228 334° Northwest 194 223 26,000  Level Memphis Center
Wed 12:23:01 AM 37.3753 -86.5531 334° Northwest 194 223 26,000  Level Memphis Center
Wed 12:24:02 AM 37.4236 -86.5839 333° Northwest 194 223 26,000  Level Memphis Center
Wed 12:25:03 AM 37.4728 -86.6139 334° Northwest 194 223 26,000  Level Memphis Center
Wed 12:26:03 AM 37.5214 -86.6444 334° Northwest 194 223 26,000  Level Memphis Center
Wed 12:27:04 AM 37.5706 -86.6739 335° Northwest 194 223 26,000  Level Memphis Center
Wed 12:28:05 AM 37.6200 -86.7069 332° Northwest 197 227 26,000  Level Memphis Center
Wed 12:29:05 AM 37.6683 -86.7369 334° Northwest 194 223 26,000  Level Memphis Center
Wed 12:30:06 AM 37.7178 -86.7686 333° Northwest 195 224 26,000  Level Memphis Center
Wed 12:31:06 AM 37.7669 -86.7992 334° Northwest 196 226 26,000  Level Memphis Center
Wed 12:32:24 AM 37.8256 -86.8344 335° Northwest 195 224 26,000  Level Indianapolis Center
Wed 12:33:25 AM 37.8739 -86.8650 333° Northwest 194 223 26,000  Level Indianapolis Center
Wed 12:34:25 AM 37.9233 -86.8967 333° Northwest 196 226 26,000  Level Indianapolis Center
Wed 12:35:26 AM 37.9722 -86.9281 333° Northwest 197 227 26,000  Level Indianapolis Center
Wed 12:36:26 AM 38.0214 -86.9589 334° Northwest 196 226 26,000  Level Indianapolis Center
Wed 12:37:27 AM 38.0706 -86.9906 333° Northwest 196 226 26,000  Level Indianapolis Center
Wed 12:38:27 AM 38.1192 -87.0219 333° Northwest 195 224 26,000  Level Indianapolis Center
Wed 12:39:28 AM 38.1689 -87.0533 334° Northwest 197 227 26,000  Level Indianapolis Center
Wed 12:40:28 AM 38.2175 -87.0850 333° Northwest 194 223 26,000  Level Indianapolis Center
Wed 12:41:29 AM 38.2667 -87.1144 335° Northwest 197 227 26,000  Level Indianapolis Center
Wed 12:42:29 AM 38.3169 -87.1442 335° Northwest 197 227 26,000  Level Indianapolis Center
Wed 12:43:30 AM 38.3697 -87.1817 331° Northwest 199 229 26,000  Level Indianapolis Center
Wed 12:44:30 AM 38.4186 -87.2131 333° Northwest 197 227 26,000  Level Indianapolis Center
Wed 12:45:31 AM 38.4672 -87.2439 334° Northwest 194 223 26,000  Level Indianapolis Center
Wed 12:46:31 AM 38.5169 -87.2758 333° Northwest 197 227 26,000  Level Indianapolis Center
Wed 12:47:32 AM 38.5661 -87.3072 333° Northwest 196 226 26,000  Level Indianapolis Center
Wed 12:48:32 AM 38.6158 -87.3397 333° Northwest 199 229 26,000  Level Indianapolis Center
Wed 12:49:33 AM 38.6653 -87.3719 333° Northwest 198 228 26,000  Level Indianapolis Center
Wed 12:50:33 AM 38.7150 -87.4036 334° Northwest 199 229 26,000 -250 Level Indianapolis Center
Wed 12:51:33 AM 38.7656 -87.4364 333° Northwest 201 231 25,500 -694 Descending Indianapolis Center
Wed 12:52:34 AM 38.8197 -87.4714 333° Northwest 213 245 24,600 -942 Descending Indianapolis Center
Wed 12:53:34 AM 38.8744 -87.5067 333° Northwest 218 251 23,600 -1,000 Descending Indianapolis Center
Wed 12:54:34 AM 38.9294 -87.5419 333° Northwest 219 252 22,600 -1,140 Descending Indianapolis Center
Wed 12:55:35 AM 38.9867 -87.5783 334° Northwest 225 259 21,300 -1,289 Descending Indianapolis Center
Wed 12:56:35 AM 39.0442 -87.6161 333° Northwest 229 264 20,000 -1,250 Descending Indianapolis Center
Wed 12:57:35 AM 39.1019 -87.6533 333° Northwest 231 266 18,800 -893 Descending Indianapolis Center
Wed 12:58:36 AM 39.1589 -87.6908 333° Northwest 230 265 18,200 -942 Descending Indianapolis Center
Wed 12:59:36 AM 39.2167 -87.7289 333° Northwest 231 266 16,900 -1,250 Descending Indianapolis Center
Wed 01:00:36 AM 39.2744 -87.7669 333° Northwest 231 266 15,700 -1,240 Descending Indianapolis Center
Wed 01:01:37 AM 39.3333 -87.8050 333° Northwest 233 268 14,400 -1,289 Descending Indianapolis Center
Wed 01:02:37 AM 39.3922 -87.8436 333° Northwest 235 270 13,100 -1,250 Descending Indianapolis Center
Wed 01:03:37 AM 39.4503 -87.8811 333° Northwest 234 269 11,900 -1,240 Descending Indianapolis Center
Wed 01:04:38 AM 39.5083 -87.9206 332° Northwest 233 268 10,600 -1,289 Descending Indianapolis Center
Wed 01:05:38 AM 39.5683 -87.9603 333° Northwest 237 273 9,300 -1,300 Descending Indianapolis Center
Wed 01:06:38 AM 39.6300 -88.0019 333° Northwest 244 281 8,000 -1,240 Descending Indianapolis Center
Wed 01:07:39 AM 39.6911 -88.0411 334° Northwest 244 281 6,800 -1,240 Descending Indianapolis Center
Wed 01:08:39 AM 39.7511 -88.0811 333° Northwest 243 280 5,500 -1,300 Descending Indianapolis Center
Wed 01:10:00 AM 39.8125 -88.1325 327° Northwest  Level FlightAware Approximate
Wed 01:17:00 AM 40.0333 -88.2667 333° Northwest  Level FlightAware Approximate
Wed 01:18:00 AM 40.0388 -88.2778 333° Northwest  Level Estimated
Wed 01:19:00 AM 40.0388 -88.2778 333° Northwest  Level Estimated
Wed 01:20:00 AM 40.0388 -88.2778 333° Northwest  Level Estimated
Wed 01:21:00 AM 40.0388 -88.2778 333° Northwest  Level Estimated
Wed 01:22:00 AM 40.0388 -88.2778 333° Northwest  Level Estimated

Login

Don't have an account? Register now (free) for customized features, flight alerts, and more!